Time;durP1;ratioP1;P1;durP2;ratioP2;P2;SDS_P1;SDS_P2;PMS_P1;PMS_P2;Temp;Humidity;BMP_temperature;BMP_pressure;BME280_temperature;BME280_humidity;BME280_pressure;Samples;Min_cycle;Max_cycle;Signal;HPM_P1;HPM_P2
2020/12/21 00:00:19;;;;;;;27.30;11.57;;;;;;;;;;5063396;28;20207;-74
2020/12/21 00:03:24;;;;;;;29.47;10.87;;;;;;;;;;5067245;28;20203;-75
2020/12/21 00:06:29;;;;;;;28.80;11.63;;;;;;;;;;5066933;28;20207;-75
2020/12/21 00:09:34;;;;;;;30.53;11.80;;;;;;;;;;5046033;28;20600;-75
2020/12/21 00:12:40;;;;;;;23.97;9.87;;;;;;;;;;5042635;28;20377;-75
2020/12/21 00:15:44;;;;;;;22.63;9.73;;;;;;;;;;5046610;28;20214;-76
2020/12/21 00:18:48;;;;;;;21.97;9.57;;;;;;;;;;5042284;28;20851;-75
2020/12/21 00:21:54;;;;;;;24.60;10.07;;;;;;;;;;5042098;28;20228;-76
2020/12/21 00:24:59;;;;;;;22.33;10.53;;;;;;;;;;5035580;28;20254;-76
2020/12/21 00:28:04;;;;;;;25.77;9.70;;;;;;;;;;5041377;28;20255;-75
2020/12/21 00:31:09;;;;;;;22.87;10.10;;;;;;;;;;5040202;28;20733;-75
2020/12/21 00:34:14;;;;;;;24.83;10.33;;;;;;;;;;5042560;28;20218;-75
2020/12/21 00:37:19;;;;;;;28.50;11.43;;;;;;;;;;5040178;28;20249;-75
2020/12/21 00:40:24;;;;;;;28.37;11.17;;;;;;;;;;5040750;28;20226;-76
2020/12/21 00:43:29;;;;;;;30.97;11.50;;;;;;;;;;5043404;28;20218;-76
2020/12/21 00:50:04;;;;;;;26.43;10.67;;;;;;;;;;5043492;28;20305;-75
2020/12/21 00:53:09;;;;;;;26.07;10.87;;;;;;;;;;5038184;28;20200;-76
2020/12/21 00:56:14;;;;;;;29.30;11.33;;;;;;;;;;5033293;28;20223;-76
2020/12/21 00:59:20;;;;;;;29.73;11.20;;;;;;;;;;5027398;28;20230;-76
2020/12/21 01:02:24;;;;;;;35.07;12.37;;;;;;;;;;5045377;28;20261;-76
2020/12/21 01:05:29;;;;;;;28.47;11.23;;;;;;;;;;5042238;28;20199;-76
2020/12/21 01:08:34;;;;;;;28.97;11.03;;;;;;;;;;5044824;28;20210;-75
2020/12/21 01:11:39;;;;;;;31.73;11.20;;;;;;;;;;5037682;28;20311;-75
2020/12/21 01:14:45;;;;;;;28.03;11.57;;;;;;;;;;5033102;28;20235;-76
2020/12/21 01:17:49;;;;;;;29.47;11.50;;;;;;;;;;5024795;28;20584;-76
2020/12/21 01:20:54;;;;;;;29.00;11.33;;;;;;;;;;5027539;28;20315;-76
2020/12/21 01:23:59;;;;;;;32.67;11.83;;;;;;;;;;5032647;28;20741;-76
2020/12/21 01:27:04;;;;;;;32.50;12.13;;;;;;;;;;5048768;28;20245;-75
2020/12/21 01:30:09;;;;;;;26.73;10.67;;;;;;;;;;5037653;28;20331;-75
2020/12/21 01:33:14;;;;;;;27.00;11.73;;;;;;;;;;5037205;28;20273;-75
2020/12/21 01:36:20;;;;;;;34.43;11.53;;;;;;;;;;5031385;28;20291;-75
2020/12/21 01:39:24;;;;;;;33.90;11.93;;;;;;;;;;5030138;28;20310;-75
2020/12/21 01:42:29;;;;;;;32.60;12.50;;;;;;;;;;5033817;28;20226;-76
2020/12/21 01:45:34;;;;;;;38.73;13.03;;;;;;;;;;5049126;28;20238;-75
2020/12/21 01:48:39;;;;;;;36.10;13.33;;;;;;;;;;5020261;28;20208;-75
2020/12/21 01:51:44;;;;;;;36.33;12.57;;;;;;;;;;5030337;28;20418;-76
2020/12/21 01:54:49;;;;;;;36.73;13.20;;;;;;;;;;5048199;28;20261;-76
2020/12/21 01:57:54;;;;;;;35.57;12.83;;;;;;;;;;5035517;28;20215;-74
2020/12/21 02:01:01;;;;;;;38.53;13.43;;;;;;;;;;5061499;28;20219;-75
2020/12/21 02:04:06;;;;;;;35.83;12.77;;;;;;;;;;5045687;28;20215;-75
2020/12/21 02:07:12;;;;;;;31.80;12.00;;;;;;;;;;5059094;28;20216;-75
2020/12/21 02:10:18;;;;;;;36.57;14.10;;;;;;;;;;5042211;28;20199;-75
2020/12/21 02:13:23;;;;;;;39.00;14.07;;;;;;;;;;5042430;28;20208;-75
2020/12/21 02:16:29;;;;;;;44.43;15.10;;;;;;;;;;5033251;28;20207;-74
2020/12/21 02:19:33;;;;;;;39.20;14.40;;;;;;;;;;5036274;28;20242;-75
2020/12/21 02:22:39;;;;;;;40.20;14.27;;;;;;;;;;5046208;28;20234;-75
2020/12/21 02:25:44;;;;;;;45.17;14.20;;;;;;;;;;5042542;28;20210;-75
2020/12/21 02:28:51;;;;;;;42.83;14.47;;;;;;;;;;5036639;28;20215;-75
2020/12/21 02:31:55;;;;;;;45.57;15.40;;;;;;;;;;5046229;28;20222;-75
2020/12/21 02:35:00;;;;;;;42.70;14.63;;;;;;;;;;5033323;28;20202;-75
2020/12/21 02:38:07;;;;;;;48.03;15.47;;;;;;;;;;5047168;28;20313;-75
2020/12/21 02:41:14;;;;;;;47.97;14.67;;;;;;;;;;5036435;28;20762;-75
2020/12/21 02:44:19;;;;;;;43.10;14.77;;;;;;;;;;5045030;28;20219;-75
2020/12/21 02:47:24;;;;;;;54.97;16.57;;;;;;;;;;5028407;28;20311;-75
2020/12/21 02:50:28;;;;;;;43.37;15.13;;;;;;;;;;5040520;28;20212;-75
2020/12/21 02:53:33;;;;;;;45.57;15.00;;;;;;;;;;5036076;28;20238;-74
2020/12/21 02:56:38;;;;;;;52.93;16.40;;;;;;;;;;5044563;28;20207;-75
2020/12/21 02:59:43;;;;;;;47.40;15.33;;;;;;;;;;5037525;28;20629;-75
2020/12/21 03:02:48;;;;;;;52.37;16.00;;;;;;;;;;5037719;28;20219;-75
2020/12/21 03:05:53;;;;;;;51.30;16.03;;;;;;;;;;5034703;28;20251;-75
2020/12/21 03:08:58;;;;;;;54.80;16.57;;;;;;;;;;5035626;28;20682;-75
2020/12/21 03:12:02;;;;;;;51.17;16.53;;;;;;;;;;5033668;28;20273;-75
2020/12/21 03:15:07;;;;;;;54.63;16.23;;;;;;;;;;5039886;28;20259;-75
2020/12/21 03:18:12;;;;;;;58.47;17.00;;;;;;;;;;5035322;28;20250;-75
2020/12/21 03:21:16;;;;;;;55.87;17.50;;;;;;;;;;5026998;28;20261;-75
2020/12/21 03:24:22;;;;;;;61.93;16.97;;;;;;;;;;5051661;28;20211;-75
2020/12/21 03:27:26;;;;;;;64.43;18.13;;;;;;;;;;5052880;28;20214;-75
2020/12/21 03:30:31;;;;;;;65.97;17.97;;;;;;;;;;5034170;28;20235;-75
2020/12/21 03:33:36;;;;;;;60.60;18.60;;;;;;;;;;5043227;28;20581;-75
2020/12/21 03:36:41;;;;;;;57.53;18.90;;;;;;;;;;5044803;28;20282;-75
2020/12/21 03:39:48;;;;;;;52.77;17.57;;;;;;;;;;5046195;28;20297;-75
2020/12/21 03:42:52;;;;;;;58.90;18.33;;;;;;;;;;5037774;28;20235;-75
2020/12/21 03:45:57;;;;;;;67.73;18.50;;;;;;;;;;5049089;28;20650;-75
2020/12/21 03:49:01;;;;;;;56.90;17.63;;;;;;;;;;5039166;28;20243;-75
2020/12/21 03:52:06;;;;;;;57.73;18.00;;;;;;;;;;5033834;28;20243;-76
2020/12/21 03:55:12;;;;;;;57.63;18.27;;;;;;;;;;5051717;28;20318;-75
2020/12/21 03:58:16;;;;;;;59.07;18.07;;;;;;;;;;5037475;28;20361;-75
2020/12/21 04:01:21;;;;;;;59.73;18.93;;;;;;;;;;5033909;28;20255;-75
2020/12/21 04:04:26;;;;;;;59.50;19.03;;;;;;;;;;5042221;28;20264;-74
2020/12/21 04:07:31;;;;;;;54.80;17.03;;;;;;;;;;5051481;28;20270;-74
2020/12/21 04:10:38;;;;;;;58.07;17.67;;;;;;;;;;5072087;28;20235;-74
2020/12/21 04:13:42;;;;;;;57.00;18.17;;;;;;;;;;5052343;28;20242;-75
2020/12/21 04:16:47;;;;;;;64.13;19.43;;;;;;;;;;5042140;28;20202;-74
2020/12/21 04:19:52;;;;;;;62.53;19.43;;;;;;;;;;5046032;28;20238;-75
2020/12/21 04:22:56;;;;;;;63.70;17.80;;;;;;;;;;5052244;28;20261;-75
2020/12/21 04:26:02;;;;;;;63.03;18.60;;;;;;;;;;5045589;28;20211;-75
2020/12/21 04:29:06;;;;;;;63.03;18.17;;;;;;;;;;5040597;28;20222;-75
2020/12/21 04:32:11;;;;;;;60.33;19.20;;;;;;;;;;5029369;28;20227;-75
2020/12/21 04:35:16;;;;;;;58.63;18.47;;;;;;;;;;5037863;28;20221;-75
2020/12/21 04:38:20;;;;;;;59.60;18.10;;;;;;;;;;5036514;28;20629;-76
2020/12/21 04:41:26;;;;;;;55.17;18.00;;;;;;;;;;5052020;28;20235;-75
2020/12/21 04:44:30;;;;;;;52.10;17.43;;;;;;;;;;5037257;28;20713;-76
2020/12/21 04:47:35;;;;;;;54.77;18.27;;;;;;;;;;5046894;28;20257;-74
2020/12/21 04:50:40;;;;;;;47.37;17.00;;;;;;;;;;5035841;28;20788;-75
2020/12/21 04:53:45;;;;;;;58.87;17.50;;;;;;;;;;5027008;28;20294;-75
2020/12/21 04:56:50;;;;;;;48.87;15.87;;;;;;;;;;5026655;28;20261;-75
2020/12/21 04:59:54;;;;;;;55.70;17.73;;;;;;;;;;5026324;28;20294;-76
2020/12/21 05:02:59;;;;;;;53.80;17.50;;;;;;;;;;5025761;28;20295;-75
2020/12/21 05:06:07;;;;;;;53.57;17.67;;;;;;;;;;5031461;28;20210;-75
2020/12/21 05:09:11;;;;;;;50.13;17.07;;;;;;;;;;5034898;28;20207;-75
2020/12/21 05:12:17;;;;;;;53.93;17.07;;;;;;;;;;5026189;28;20568;-75
2020/12/21 05:15:23;;;;;;;50.77;17.37;;;;;;;;;;5039298;28;20218;-75
2020/12/21 05:18:28;;;;;;;49.70;17.03;;;;;;;;;;5028567;28;20285;-74
2020/12/21 05:21:33;;;;;;;49.33;16.73;;;;;;;;;;5024447;28;20243;-75
2020/12/21 05:24:38;;;;;;;49.47;16.20;;;;;;;;;;5034997;28;20286;-75
2020/12/21 05:27:43;;;;;;;48.97;16.80;;;;;;;;;;5019964;28;20216;-75
2020/12/21 05:30:52;;;;;;;47.60;16.10;;;;;;;;;;5042037;28;20203;-75
2020/12/21 05:33:56;;;;;;;45.73;16.47;;;;;;;;;;5043325;28;20517;-75
2020/12/21 05:37:10;;;;;;;49.23;17.03;;;;;;;;;;5042645;28;20200;-76
2020/12/21 05:40:14;;;;;;;44.93;16.07;;;;;;;;;;5045285;28;20858;-75
2020/12/21 05:43:24;;;;;;;43.43;16.13;;;;;;;;;;5044256;28;20207;-75
2020/12/21 05:46:30;;;;;;;63.03;22.27;;;;;;;;;;5042490;28;20697;-75
2020/12/21 05:49:38;;;;;;;46.27;16.33;;;;;;;;;;5050033;28;20659;-75
2020/12/21 05:52:42;;;;;;;43.40;16.80;;;;;;;;;;5027448;28;20263;-75
2020/12/21 05:55:48;;;;;;;46.17;16.53;;;;;;;;;;5037544;28;20215;-76
2020/12/21 05:58:54;;;;;;;43.97;15.63;;;;;;;;;;5034299;28;20288;-76
2020/12/21 06:02:00;;;;;;;46.83;17.10;;;;;;;;;;5033146;28;20238;-75
2020/12/21 06:05:06;;;;;;;45.30;15.73;;;;;;;;;;5039293;28;20279;-76
2020/12/21 06:08:13;;;;;;;41.33;16.53;;;;;;;;;;5032961;28;20187;-75
2020/12/21 06:11:19;;;;;;;43.30;16.57;;;;;;;;;;5024274;28;20356;-75
2020/12/21 06:14:25;;;;;;;43.60;16.03;;;;;;;;;;5039265;28;20243;-75
2020/12/21 06:17:30;;;;;;;50.87;17.20;;;;;;;;;;5032860;28;20294;-75
2020/12/21 06:20:42;;;;;;;50.30;17.93;;;;;;;;;;5032848;28;20196;-75
2020/12/21 06:23:47;;;;;;;50.37;17.93;;;;;;;;;;5036718;28;20272;-75
2020/12/21 06:26:52;;;;;;;57.13;18.53;;;;;;;;;;5032678;28;20255;-75
2020/12/21 06:30:03;;;;;;;51.80;16.77;;;;;;;;;;5040328;28;20191;-75
2020/12/21 06:33:08;;;;;;;58.63;18.83;;;;;;;;;;5036576;28;20302;-75
2020/12/21 06:36:12;;;;;;;56.43;18.27;;;;;;;;;;5039761;28;20203;-74
2020/12/21 06:39:24;;;;;;;51.93;17.43;;;;;;;;;;5032188;28;20230;-75
2020/12/21 06:42:29;;;;;;;49.20;16.83;;;;;;;;;;5033901;28;20323;-75
2020/12/21 06:45:35;;;;;;;49.67;16.63;;;;;;;;;;5030492;28;20230;-76
2020/12/21 06:48:40;;;;;;;51.60;18.17;;;;;;;;;;5032129;28;20690;-75
2020/12/21 06:51:45;;;;;;;51.90;17.83;;;;;;;;;;5055971;28;20234;-75
2020/12/21 06:54:53;;;;;;;51.73;16.80;;;;;;;;;;5059307;28;20686;-74
2020/12/21 06:57:57;;;;;;;50.83;17.27;;;;;;;;;;5049393;28;20215;-75
2020/12/21 07:01:03;;;;;;;54.27;18.23;;;;;;;;;;5042368;28;20343;-74
2020/12/21 07:04:14;;;;;;;46.53;16.87;;;;;;;;;;5039563;28;20276;-74
2020/12/21 07:07:19;;;;;;;60.03;18.13;;;;;;;;;;5045507;28;20242;-76
2020/12/21 07:10:25;;;;;;;51.13;17.83;;;;;;;;;;5039394;28;20249;-75
2020/12/21 07:13:32;;;;;;;46.43;16.33;;;;;;;;;;5036380;28;20231;-75
2020/12/21 07:16:38;;;;;;;49.53;17.70;;;;;;;;;;5050306;28;20226;-76
2020/12/21 07:19:43;;;;;;;54.33;20.17;;;;;;;;;;5045183;28;20245;-76
2020/12/21 07:22:48;;;;;;;49.63;17.43;;;;;;;;;;5046618;28;20227;-75
2020/12/21 07:25:52;;;;;;;52.87;17.50;;;;;;;;;;5033042;28;20234;-76
2020/12/21 07:28:57;;;;;;;51.13;18.00;;;;;;;;;;5033412;28;20202;-75
2020/12/21 07:32:03;;;;;;;46.53;16.80;;;;;;;;;;5038533;28;20227;-76
2020/12/21 07:35:08;;;;;;;48.43;16.57;;;;;;;;;;5044612;28;20709;-76
2020/12/21 07:38:13;;;;;;;48.20;17.03;;;;;;;;;;5036522;28;20262;-75
2020/12/21 07:41:23;;;;;;;51.67;17.50;;;;;;;;;;5045963;28;20249;-75
2020/12/21 07:44:30;;;;;;;53.20;17.03;;;;;;;;;;5033865;28;20635;-75
2020/12/21 07:47:35;;;;;;;50.20;17.63;;;;;;;;;;5048225;28;20278;-76
2020/12/21 07:50:42;;;;;;;49.47;17.13;;;;;;;;;;5049888;28;20550;-76
2020/12/21 07:53:47;;;;;;;49.23;17.27;;;;;;;;;;5041183;28;20243;-75
2020/12/21 07:57:05;;;;;;;47.50;17.27;;;;;;;;;;5035326;28;20247;-76
2020/12/21 08:00:13;;;;;;;48.60;16.37;;;;;;;;;;5040553;28;20286;-77
2020/12/21 08:03:20;;;;;;;48.00;16.30;;;;;;;;;;5036141;28;20223;-76
2020/12/21 08:06:26;;;;;;;54.90;19.07;;;;;;;;;;5057949;28;20261;-75
2020/12/21 08:09:31;;;;;;;49.13;17.67;;;;;;;;;;5070747;28;20283;-75
2020/12/21 08:12:36;;;;;;;49.57;17.20;;;;;;;;;;5057126;28;20358;-75
2020/12/21 08:15:41;;;;;;;45.10;16.80;;;;;;;;;;5050612;28;20279;-75
2020/12/21 08:18:50;;;;;;;44.10;15.53;;;;;;;;;;5043252;28;20242;-75
2020/12/21 08:22:04;;;;;;;41.43;15.93;;;;;;;;;;5034431;28;20235;-75
2020/12/21 08:25:09;;;;;;;40.90;15.57;;;;;;;;;;5032313;28;20265;-75
2020/12/21 08:28:24;;;;;;;42.80;16.10;;;;;;;;;;5028552;28;20202;-76
2020/12/21 08:31:29;;;;;;;41.70;15.73;;;;;;;;;;5034835;28;20591;-76
2020/12/21 08:34:34;;;;;;;40.83;15.47;;;;;;;;;;5044914;28;20214;-75
2020/12/21 08:41:21;;;;;;;47.63;16.63;;;;;;;;;;5018970;28;20451;-76
2020/12/21 08:44:42;;;;;;;48.53;16.60;;;;;;;;;;5035176;28;20623;-75
2020/12/21 08:47:47;;;;;;;46.60;15.53;;;;;;;;;;5023389;28;20220;-76
2020/12/21 08:50:52;;;;;;;41.83;15.50;;;;;;;;;;5020187;28;20251;-76
2020/12/21 08:53:57;;;;;;;41.33;15.27;;;;;;;;;;5045084;28;20214;-76
2020/12/21 08:57:05;;;;;;;45.30;16.57;;;;;;;;;;5037391;28;20249;-76
2020/12/21 09:00:11;;;;;;;50.60;16.63;;;;;;;;;;5033288;28;20235;-74
2020/12/21 09:03:16;;;;;;;39.43;14.63;;;;;;;;;;5039387;28;20733;-75
2020/12/21 09:06:22;;;;;;;40.10;14.60;;;;;;;;;;5044854;28;20212;-76
2020/12/21 09:09:27;;;;;;;42.77;14.93;;;;;;;;;;5039685;28;20223;-76
2020/12/21 09:12:32;;;;;;;38.93;14.90;;;;;;;;;;5033857;28;20739;-76
2020/12/21 09:15:41;;;;;;;36.83;14.43;;;;;;;;;;5038349;28;20586;-74
2020/12/21 09:18:56;;;;;;;42.63;15.50;;;;;;;;;;5030905;28;20255;-75
2020/12/21 09:22:02;;;;;;;39.10;14.80;;;;;;;;;;5044972;28;20231;-75
2020/12/21 09:25:06;;;;;;;36.90;15.43;;;;;;;;;;5041947;28;20602;-76
2020/12/21 09:28:11;;;;;;;42.27;15.40;;;;;;;;;;5029002;28;20255;-75
2020/12/21 09:31:27;;;;;;;37.97;14.97;;;;;;;;;;5029281;28;20781;-76
2020/12/21 09:34:36;;;;;;;38.37;14.37;;;;;;;;;;5031639;28;20223;-76
2020/12/21 09:37:41;;;;;;;40.27;14.57;;;;;;;;;;5042380;28;20230;-76
2020/12/21 09:40:46;;;;;;;36.50;14.27;;;;;;;;;;5034584;28;20350;-75
2020/12/21 09:43:52;;;;;;;39.20;14.87;;;;;;;;;;5033242;28;20698;-76
2020/12/21 09:46:57;;;;;;;39.13;15.00;;;;;;;;;;5027393;28;20319;-75
2020/12/21 09:50:02;;;;;;;34.33;14.33;;;;;;;;;;5038791;28;20203;-75
2020/12/21 09:53:08;;;;;;;42.00;15.73;;;;;;;;;;5036383;28;20630;-75
2020/12/21 09:56:13;;;;;;;42.77;15.43;;;;;;;;;;5028817;28;20304;-76
2020/12/21 09:59:17;;;;;;;36.50;14.60;;;;;;;;;;5034754;28;20259;-76
2020/12/21 10:02:22;;;;;;;35.57;14.23;;;;;;;;;;5032291;28;20238;-75
2020/12/21 10:05:27;;;;;;;40.27;14.30;;;;;;;;;;5031943;28;20219;-75
2020/12/21 10:08:33;;;;;;;34.73;13.73;;;;;;;;;;5030429;28;20254;-75
2020/12/21 10:11:38;;;;;;;37.70;13.33;;;;;;;;;;5030268;28;20365;-76
2020/12/21 10:14:43;;;;;;;31.90;12.53;;;;;;;;;;5022530;28;20250;-76
2020/12/21 10:17:49;;;;;;;35.73;13.73;;;;;;;;;;5030831;28;20318;-75
2020/12/21 10:20:53;;;;;;;30.80;12.60;;;;;;;;;;5046373;28;20286;-76
2020/12/21 10:23:59;;;;;;;29.57;12.27;;;;;;;;;;5066789;28;20272;-76
2020/12/21 10:27:04;;;;;;;29.43;12.70;;;;;;;;;;5057577;28;20219;-75
2020/12/21 10:30:09;;;;;;;32.17;13.37;;;;;;;;;;5061987;28;20235;-74
2020/12/21 10:33:14;;;;;;;29.43;13.03;;;;;;;;;;5054118;28;20212;-75
2020/12/21 10:36:20;;;;;;;31.37;12.90;;;;;;;;;;5012261;28;20196;-76
2020/12/21 10:39:25;;;;;;;26.30;11.77;;;;;;;;;;5036497;28;20219;-75
2020/12/21 10:42:30;;;;;;;30.37;12.30;;;;;;;;;;5031879;28;20273;-75
2020/12/21 10:45:34;;;;;;;27.47;11.70;;;;;;;;;;5027226;28;20382;-76
2020/12/21 10:48:39;;;;;;;30.87;13.53;;;;;;;;;;5033419;28;20227;-74
2020/12/21 10:51:45;;;;;;;29.70;12.50;;;;;;;;;;5032890;28;20243;-76
2020/12/21 10:54:50;;;;;;;33.17;12.30;;;;;;;;;;5023169;28;20627;-74
2020/12/21 10:57:55;;;;;;;28.57;12.10;;;;;;;;;;5048354;28;20202;-78
2020/12/21 11:00:59;;;;;;;28.83;11.93;;;;;;;;;;5042706;28;20231;-75
2020/12/21 11:04:04;;;;;;;28.10;12.07;;;;;;;;;;5034612;28;20211;-74
2020/12/21 11:07:09;;;;;;;33.20;12.43;;;;;;;;;;5037363;28;20691;-75
2020/12/21 11:10:16;;;;;;;26.30;11.77;;;;;;;;;;5048202;28;20290;-74
2020/12/21 11:13:20;;;;;;;26.73;11.93;;;;;;;;;;5029999;28;20667;-76
2020/12/21 11:16:25;;;;;;;30.27;11.97;;;;;;;;;;5035019;28;20316;-75
2020/12/21 11:19:29;;;;;;;31.80;11.93;;;;;;;;;;5031722;28;20371;-77
2020/12/21 11:22:34;;;;;;;29.87;11.70;;;;;;;;;;5040175;28;20224;-77
2020/12/21 11:25:40;;;;;;;28.63;11.57;;;;;;;;;;5047417;28;20211;-79
2020/12/21 11:28:44;;;;;;;31.43;12.93;;;;;;;;;;5041101;28;20339;-80
2020/12/21 11:31:49;;;;;;;27.73;12.37;;;;;;;;;;5045514;28;20261;-78
2020/12/21 11:34:53;;;;;;;32.93;13.43;;;;;;;;;;5044200;28;20234;-79
2020/12/21 11:37:58;;;;;;;31.27;13.30;;;;;;;;;;5046738;28;20208;-79
2020/12/21 11:41:04;;;;;;;29.07;12.77;;;;;;;;;;5048990;28;20289;-78
2020/12/21 11:44:09;;;;;;;34.90;14.13;;;;;;;;;;5054548;28;20218;-77
2020/12/21 11:47:14;;;;;;;37.87;15.20;;;;;;;;;;5031882;28;20207;-77
2020/12/21 11:50:19;;;;;;;32.37;14.47;;;;;;;;;;5046508;28;20243;-76
2020/12/21 11:53:24;;;;;;;31.80;14.10;;;;;;;;;;5039421;28;20650;-75
2020/12/21 11:56:29;;;;;;;33.23;15.70;;;;;;;;;;5036643;28;20279;-76
2020/12/21 11:59:34;;;;;;;34.37;15.20;;;;;;;;;;5036296;28;20596;-76
2020/12/21 12:02:39;;;;;;;37.00;17.10;;;;;;;;;;5046228;28;20284;-76
2020/12/21 12:05:44;;;;;;;35.73;16.27;;;;;;;;;;5032538;28;20703;-75
2020/12/21 12:08:49;;;;;;;32.30;15.70;;;;;;;;;;5037643;28;20246;-76
2020/12/21 12:11:55;;;;;;;40.00;18.30;;;;;;;;;;5046659;28;20294;-75
2020/12/21 12:15:09;;;;;;;35.60;17.03;;;;;;;;;;5033310;28;20242;-76
2020/12/21 12:18:17;;;;;;;38.60;17.73;;;;;;;;;;5046152;28;20225;-76
2020/12/21 12:21:21;;;;;;;37.97;17.10;;;;;;;;;;5053507;28;20687;-76
2020/12/21 12:24:26;;;;;;;39.97;17.53;;;;;;;;;;5035833;28;20299;-77
2020/12/21 12:27:36;;;;;;;33.97;16.67;;;;;;;;;;5049979;28;20256;-75
2020/12/21 12:30:40;;;;;;;36.17;15.87;;;;;;;;;;5054978;28;20195;-75
2020/12/21 12:33:45;;;;;;;34.43;15.63;;;;;;;;;;5059403;28;20195;-76
2020/12/21 12:36:50;;;;;;;36.20;15.47;;;;;;;;;;5055465;28;20315;-76
2020/12/21 12:40:09;;;;;;;35.17;15.90;;;;;;;;;;5045650;28;20225;-75
2020/12/21 12:43:16;;;;;;;38.17;16.57;;;;;;;;;;5031781;28;20298;-75
2020/12/21 12:46:22;;;;;;;32.80;15.73;;;;;;;;;;5015541;28;20244;-77
2020/12/21 12:49:26;;;;;;;37.87;15.73;;;;;;;;;;5042465;28;20211;-75
2020/12/21 12:52:34;;;;;;;34.40;15.27;;;;;;;;;;5031079;28;20231;-78
2020/12/21 12:55:39;;;;;;;34.50;14.57;;;;;;;;;;5034776;28;20586;-77
2020/12/21 12:58:44;;;;;;;30.47;14.63;;;;;;;;;;5027187;28;20222;-76
2020/12/21 13:01:49;;;;;;;35.93;15.53;;;;;;;;;;5031802;28;20274;-77
2020/12/21 13:04:54;;;;;;;28.80;13.67;;;;;;;;;;5032711;28;20303;-75
2020/12/21 13:07:59;;;;;;;33.00;14.77;;;;;;;;;;5030423;28;20271;-79
2020/12/21 13:11:04;;;;;;;31.23;14.13;;;;;;;;;;5030362;28;20227;-78
2020/12/21 13:14:10;;;;;;;30.10;13.43;;;;;;;;;;5040386;28;20227;-78
2020/12/21 13:17:16;;;;;;;35.37;14.97;;;;;;;;;;5044600;28;20682;-79
2020/12/21 13:20:20;;;;;;;36.30;15.70;;;;;;;;;;5043447;28;20287;-78
2020/12/21 13:23:25;;;;;;;36.47;14.83;;;;;;;;;;5039436;28;20219;-78
2020/12/21 13:26:30;;;;;;;38.80;15.93;;;;;;;;;;5040270;28;20204;-77
2020/12/21 13:29:40;;;;;;;31.77;15.10;;;;;;;;;;5031865;28;20215;-76
2020/12/21 13:32:45;;;;;;;33.13;15.60;;;;;;;;;;5050312;28;20605;-76
2020/12/21 13:35:50;;;;;;;31.80;14.83;;;;;;;;;;5041700;28;20223;-76
2020/12/21 13:39:06;;;;;;;34.80;15.97;;;;;;;;;;5050258;28;20589;-76
2020/12/21 13:42:13;;;;;;;34.90;15.10;;;;;;;;;;5042009;28;20282;-76
2020/12/21 13:45:19;;;;;;;33.47;15.30;;;;;;;;;;5044163;28;20227;-75
2020/12/21 13:48:24;;;;;;;32.03;14.80;;;;;;;;;;5046775;28;20212;-77
2020/12/21 13:51:29;;;;;;;37.37;17.37;;;;;;;;;;5051512;28;20366;-77
2020/12/21 13:54:34;;;;;;;37.80;16.80;;;;;;;;;;5048752;28;20192;-77
2020/12/21 13:57:38;;;;;;;37.37;16.37;;;;;;;;;;5061512;28;20215;-77
2020/12/21 14:00:44;;;;;;;36.17;16.17;;;;;;;;;;5044639;28;20317;-77
2020/12/21 14:03:49;;;;;;;40.50;18.23;;;;;;;;;;5043629;28;20219;-77
2020/12/21 14:06:54;;;;;;;62.93;22.30;;;;;;;;;;5038570;28;20203;-78
2020/12/21 14:10:02;;;;;;;54.57;21.00;;;;;;;;;;5050616;28;20199;-78
2020/12/21 14:13:11;;;;;;;50.83;20.50;;;;;;;;;;5045711;28;20207;-78
2020/12/21 14:16:17;;;;;;;43.40;17.73;;;;;;;;;;5040747;28;20207;-77
2020/12/21 14:19:22;;;;;;;36.13;16.43;;;;;;;;;;5040555;28;21056;-76
2020/12/21 14:22:27;;;;;;;38.57;17.03;;;;;;;;;;5056069;28;20262;-77
2020/12/21 14:25:32;;;;;;;40.33;16.63;;;;;;;;;;5058173;28;20628;-77
2020/12/21 14:28:37;;;;;;;40.33;17.50;;;;;;;;;;5051829;28;20200;-78
2020/12/21 14:31:43;;;;;;;67.03;25.17;;;;;;;;;;5056075;28;20226;-78
2020/12/21 14:34:48;;;;;;;50.77;20.53;;;;;;;;;;5043644;28;20202;-78
2020/12/21 14:37:53;;;;;;;49.93;21.53;;;;;;;;;;5034277;28;20208;-78
2020/12/21 14:40:58;;;;;;;52.47;22.33;;;;;;;;;;5033487;28;20596;-77
2020/12/21 14:44:02;;;;;;;40.00;17.93;;;;;;;;;;5032608;28;20266;-76
2020/12/21 14:47:09;;;;;;;47.77;19.40;;;;;;;;;;5052822;28;20207;-77
2020/12/21 14:50:13;;;;;;;40.27;18.03;;;;;;;;;;5048495;28;20199;-77
2020/12/21 14:53:18;;;;;;;41.80;18.47;;;;;;;;;;5045795;28;20250;-77
2020/12/21 14:56:23;;;;;;;47.13;20.10;;;;;;;;;;5023780;28;20297;-77
2020/12/21 14:59:27;;;;;;;55.67;20.73;;;;;;;;;;5051148;28;20222;-77
2020/12/21 15:02:34;;;;;;;48.37;18.33;;;;;;;;;;5033448;28;20251;-78
2020/12/21 15:05:51;;;;;;;47.80;19.77;;;;;;;;;;5025746;28;20250;-78
2020/12/21 15:08:57;;;;;;;47.73;20.00;;;;;;;;;;5058032;28;20215;-78
2020/12/21 15:12:01;;;;;;;52.40;19.27;;;;;;;;;;5055769;28;20234;-77
2020/12/21 15:15:07;;;;;;;53.97;20.37;;;;;;;;;;5042606;28;20219;-79
2020/12/21 15:18:13;;;;;;;56.60;22.23;;;;;;;;;;5041111;28;20341;-78
2020/12/21 15:21:17;;;;;;;48.93;21.07;;;;;;;;;;5038824;28;20238;-79
2020/12/21 15:24:22;;;;;;;54.33;22.30;;;;;;;;;;5052452;28;20274;-78
2020/12/21 15:27:27;;;;;;;55.10;22.73;;;;;;;;;;5041402;28;20258;-78
2020/12/21 15:30:31;;;;;;;59.43;24.43;;;;;;;;;;5037439;28;20203;-78
2020/12/21 15:33:37;;;;;;;53.63;22.83;;;;;;;;;;5059199;28;20191;-76
2020/12/21 15:36:45;;;;;;;56.27;23.43;;;;;;;;;;5055888;28;20194;-76
2020/12/21 15:39:52;;;;;;;53.60;22.47;;;;;;;;;;5045453;28;20223;-77
2020/12/21 15:42:57;;;;;;;52.53;22.37;;;;;;;;;;5031635;28;20293;-76
2020/12/21 15:46:02;;;;;;;55.63;21.20;;;;;;;;;;5042098;28;20195;-77
2020/12/21 15:49:07;;;;;;;52.50;22.10;;;;;;;;;;5033711;28;20216;-76
2020/12/21 15:52:13;;;;;;;53.10;22.20;;;;;;;;;;5045369;28;20262;-76
2020/12/21 15:55:21;;;;;;;51.80;22.10;;;;;;;;;;5044307;28;20212;-75
2020/12/21 15:58:25;;;;;;;80.87;29.53;;;;;;;;;;5047740;28;20226;-76
2020/12/21 16:01:30;;;;;;;56.97;22.40;;;;;;;;;;5066225;28;20277;-75
2020/12/21 16:04:35;;;;;;;52.70;21.80;;;;;;;;;;5044373;28;20215;-76
2020/12/21 16:07:40;;;;;;;57.73;22.43;;;;;;;;;;5034545;28;20561;-77
2020/12/21 16:10:45;;;;;;;55.83;21.73;;;;;;;;;;5031874;28;20687;-76
2020/12/21 16:13:51;;;;;;;61.57;24.23;;;;;;;;;;5043478;28;20211;-77
2020/12/21 16:16:55;;;;;;;57.50;21.43;;;;;;;;;;5034682;28;20208;-78
2020/12/21 16:20:07;;;;;;;54.23;21.23;;;;;;;;;;5039059;28;20385;-77
2020/12/21 16:23:14;;;;;;;53.27;19.73;;;;;;;;;;5038895;28;20195;-77
2020/12/21 16:26:23;;;;;;;57.90;21.17;;;;;;;;;;5039519;28;20211;-77
2020/12/21 16:29:28;;;;;;;51.97;20.47;;;;;;;;;;5022792;28;20231;-79
2020/12/21 16:32:33;;;;;;;54.83;22.57;;;;;;;;;;5055219;28;20239;-76
2020/12/21 16:35:39;;;;;;;51.60;21.13;;;;;;;;;;5052663;28;20203;-76
2020/12/21 16:38:44;;;;;;;57.40;22.57;;;;;;;;;;5050937;28;20235;-76
2020/12/21 16:41:54;;;;;;;51.83;20.60;;;;;;;;;;5036703;28;20225;-78
2020/12/21 16:44:59;;;;;;;57.03;22.23;;;;;;;;;;5046070;28;20211;-79
2020/12/21 16:48:04;;;;;;;56.30;22.73;;;;;;;;;;5041704;28;20579;-79
2020/12/21 16:51:10;;;;;;;59.47;23.27;;;;;;;;;;5035057;28;20231;-79
2020/12/21 16:54:15;;;;;;;57.93;22.43;;;;;;;;;;5034291;28;20207;-80
2020/12/21 16:57:21;;;;;;;58.43;22.67;;;;;;;;;;5045217;28;20235;-78
2020/12/21 17:00:27;;;;;;;52.13;21.37;;;;;;;;;;5022911;28;20243;-79
2020/12/21 17:03:33;;;;;;;64.87;23.70;;;;;;;;;;5048824;28;20679;-79
2020/12/21 17:06:39;;;;;;;57.33;22.37;;;;;;;;;;5058757;28;20272;-78
2020/12/21 17:09:43;;;;;;;62.30;24.83;;;;;;;;;;5054938;28;20297;-78
2020/12/21 17:12:48;;;;;;;59.50;21.90;;;;;;;;;;5058178;28;20934;-79
2020/12/21 17:15:54;;;;;;;59.73;24.10;;;;;;;;;;5046679;28;20343;-79
2020/12/21 17:19:02;;;;;;;65.03;25.77;;;;;;;;;;5037265;28;20770;-79
2020/12/21 17:22:12;;;;;;;66.93;25.77;;;;;;;;;;5038103;28;20223;-79
2020/12/21 17:25:17;;;;;;;60.87;24.77;;;;;;;;;;5043514;28;20208;-79
2020/12/21 17:28:23;;;;;;;71.63;26.67;;;;;;;;;;5043566;28;20251;-79
2020/12/21 17:31:29;;;;;;;68.00;24.50;;;;;;;;;;5042756;28;20215;-78
2020/12/21 17:34:36;;;;;;;61.40;24.73;;;;;;;;;;5060196;28;20255;-78
2020/12/21 17:37:41;;;;;;;66.03;23.77;;;;;;;;;;5039749;28;20207;-78
2020/12/21 17:40:46;;;;;;;57.90;23.00;;;;;;;;;;5050013;28;20216;-77
2020/12/21 17:43:50;;;;;;;57.30;22.43;;;;;;;;;;5044748;28;20246;-78
2020/12/21 17:46:55;;;;;;;58.53;23.17;;;;;;;;;;5036007;28;20219;-78
2020/12/21 17:50:00;;;;;;;55.93;23.03;;;;;;;;;;5043624;28;20208;-79
2020/12/21 17:53:07;;;;;;;60.80;23.57;;;;;;;;;;5042984;28;20202;-78
2020/12/21 17:56:18;;;;;;;64.23;25.13;;;;;;;;;;5040605;28;20203;-78
2020/12/21 17:59:23;;;;;;;71.23;27.73;;;;;;;;;;5032616;28;20734;-77
2020/12/21 18:02:28;;;;;;;66.27;26.03;;;;;;;;;;5045630;28;20254;-80
2020/12/21 18:05:33;;;;;;;70.53;28.17;;;;;;;;;;5045997;28;20206;-80